sensor_id;sensor_type;location;lat;lon;timestamp;temperature;humidity
6178;DHT22;3122;48.208;11.174;2023-03-01T00:04:35;0.10;1.00
6178;DHT22;3122;48.208;11.174;2023-03-01T00:09:36;0.10;1.00
6178;DHT22;3122;48.208;11.174;2023-03-01T00:14:37;0.10;1.00
6178;DHT22;3122;48.208;11.174;2023-03-01T00:19:38;0.10;1.00
6178;DHT22;3122;48.208;11.174;2023-03-01T00:24:38;0.10;1.00
6178;DHT22;3122;48.208;11.174;2023-03-01T00:29:39;0.10;1.00
6178;DHT22;3122;48.208;11.174;2023-03-01T00:34:40;0.10;1.00
6178;DHT22;3122;48.208;11.174;2023-03-01T00:39:40;0.10;1.00
6178;DHT22;3122;48.208;11.174;2023-03-01T00:44:42;0.10;1.00
6178;DHT22;3122;48.208;11.174;2023-03-01T00:49:42;0.10;1.00
6178;DHT22;3122;48.208;11.174;2023-03-01T00:54:43;0.10;1.00
6178;DHT22;3122;48.208;11.174;2023-03-01T00:59:44;0.10;1.00
6178;DHT22;3122;48.208;11.174;2023-03-01T01:04:45;0.00;1.00
6178;DHT22;3122;48.208;11.174;2023-03-01T01:09:46;0.10;1.00
6178;DHT22;3122;48.208;11.174;2023-03-01T01:14:46;0.10;1.00
6178;DHT22;3122;48.208;11.174;2023-03-01T01:19:47;0.10;1.00
6178;DHT22;3122;48.208;11.174;2023-03-01T01:24:47;0.10;1.00
6178;DHT22;3122;48.208;11.174;2023-03-01T01:29:48;0.00;1.00
6178;DHT22;3122;48.208;11.174;2023-03-01T01:34:48;0.00;1.00
6178;DHT22;3122;48.208;11.174;2023-03-01T01:39:49;0.00;1.00
6178;DHT22;3122;48.208;11.174;2023-03-01T01:50:29;0.00;1.00
6178;DHT22;3122;48.208;11.174;2023-03-01T01:55:42;0.00;1.00
6178;DHT22;3122;48.208;11.174;2023-03-01T02:00:43;0.00;1.00
6178;DHT22;3122;48.208;11.174;2023-03-01T02:06:32;0.00;1.00
6178;DHT22;3122;48.208;11.174;2023-03-01T02:11:13;0.00;1.00
6178;DHT22;3122;48.208;11.174;2023-03-01T02:16:17;0.00;1.00
6178;DHT22;3122;48.208;11.174;2023-03-01T02:26:45;0.00;1.00
6178;DHT22;3122;48.208;11.174;2023-03-01T02:31:47;0.00;1.00
6178;DHT22;3122;48.208;11.174;2023-03-01T02:37:04;0.00;1.00
6178;DHT22;3122;48.208;11.174;2023-03-01T02:42:06;-0.10;1.00
6178;DHT22;3122;48.208;11.174;2023-03-01T02:47:07;0.00;1.00
6178;DHT22;3122;48.208;11.174;2023-03-01T02:52:20;-0.10;1.00
6178;DHT22;3122;48.208;11.174;2023-03-01T02:57:23;-0.10;1.00
6178;DHT22;3122;48.208;11.174;2023-03-01T03:02:27;-0.10;1.00
6178;DHT22;3122;48.208;11.174;2023-03-01T03:07:39;0.00;1.00
6178;DHT22;3122;48.208;11.174;2023-03-01T03:12:40;-0.10;1.00
6178;DHT22;3122;48.208;11.174;2023-03-01T03:17:42;-0.10;1.00
6178;DHT22;3122;48.208;11.174;2023-03-01T03:22:42;-0.10;1.00
6178;DHT22;3122;48.208;11.174;2023-03-01T03:27:45;-0.10;1.00
6178;DHT22;3122;48.208;11.174;2023-03-01T03:32:47;-0.10;1.00
6178;DHT22;3122;48.208;11.174;2023-03-01T03:37:53;-0.10;1.00
6178;DHT22;3122;48.208;11.174;2023-03-01T03:43:05;-0.20;1.00
6178;DHT22;3122;48.208;11.174;2023-03-01T03:48:08;-0.10;1.00
6178;DHT22;3122;48.208;11.174;2023-03-01T03:53:11;-0.10;1.00
6178;DHT22;3122;48.208;11.174;2023-03-01T03:58:12;-0.20;1.00
6178;DHT22;3122;48.208;11.174;2023-03-01T04:03:15;-0.20;1.00
6178;DHT22;3122;48.208;11.174;2023-03-01T04:08:20;-0.20;1.00
6178;DHT22;3122;48.208;11.174;2023-03-01T04:13:22;-0.20;1.00
6178;DHT22;3122;48.208;11.174;2023-03-01T04:18:23;-0.20;1.00
6178;DHT22;3122;48.208;11.174;2023-03-01T04:23:25;-0.20;1.00
6178;DHT22;3122;48.208;11.174;2023-03-01T04:28:31;-0.30;1.00
6178;DHT22;3122;48.208;11.174;2023-03-01T04:33:34;-0.20;1.00
6178;DHT22;3122;48.208;11.174;2023-03-01T04:38:38;-0.20;1.00
6178;DHT22;3122;48.208;11.174;2023-03-01T04:43:39;-0.30;1.00
6178;DHT22;3122;48.208;11.174;2023-03-01T04:48:41;-0.40;1.00
6178;DHT22;3122;48.208;11.174;2023-03-01T04:53:42;-0.40;1.00
6178;DHT22;3122;48.208;11.174;2023-03-01T04:58:44;-0.40;1.00
6178;DHT22;3122;48.208;11.174;2023-03-01T05:03:50;-0.50;1.00
6178;DHT22;3122;48.208;11.174;2023-03-01T05:08:50;-0.60;1.00
6178;DHT22;3122;48.208;11.174;2023-03-01T05:13:51;-0.60;1.00
6178;DHT22;3122;48.208;11.174;2023-03-01T05:18:55;-0.70;1.00
6178;DHT22;3122;48.208;11.174;2023-03-01T05:23:57;-0.70;1.00
6178;DHT22;3122;48.208;11.174;2023-03-01T05:28:57;-0.80;1.00
6178;DHT22;3122;48.208;11.174;2023-03-01T05:33:58;-0.80;1.00
6178;DHT22;3122;48.208;11.174;2023-03-01T05:38:59;-0.90;1.00
6178;DHT22;3122;48.208;11.174;2023-03-01T05:44:00;-1.00;1.00
6178;DHT22;3122;48.208;11.174;2023-03-01T05:49:00;-1.10;1.00
6178;DHT22;3122;48.208;11.174;2023-03-01T05:54:02;-1.20;1.00
6178;DHT22;3122;48.208;11.174;2023-03-01T05:59:07;-1.10;1.00
6178;DHT22;3122;48.208;11.174;2023-03-01T06:04:08;-1.20;1.00
6178;DHT22;3122;48.208;11.174;2023-03-01T06:09:08;-1.20;1.00
6178;DHT22;3122;48.208;11.174;2023-03-01T06:14:10;-1.10;1.00
6178;DHT22;3122;48.208;11.174;2023-03-01T06:19:13;-1.10;1.00
6178;DHT22;3122;48.208;11.174;2023-03-01T06:24:13;-1.10;1.00
6178;DHT22;3122;48.208;11.174;2023-03-01T06:29:14;-1.10;1.00
6178;DHT22;3122;48.208;11.174;2023-03-01T06:34:15;-1.00;1.00
6178;DHT22;3122;48.208;11.174;2023-03-01T06:39:15;-1.10;1.00
6178;DHT22;3122;48.208;11.174;2023-03-01T06:44:18;-1.10;1.00
6178;DHT22;3122;48.208;11.174;2023-03-01T06:49:18;-1.10;1.00
6178;DHT22;3122;48.208;11.174;2023-03-01T06:54:20;-1.10;1.00
6178;DHT22;3122;48.208;11.174;2023-03-01T06:59:22;-1.10;1.00
6178;DHT22;3122;48.208;11.174;2023-03-01T07:04:23;-1.00;1.00
6178;DHT22;3122;48.208;11.174;2023-03-01T07:09:24;-1.00;1.00
6178;DHT22;3122;48.208;11.174;2023-03-01T07:14:25;-1.00;1.00
6178;DHT22;3122;48.208;11.174;2023-03-01T07:19:26;-1.00;1.00
6178;DHT22;3122;48.208;11.174;2023-03-01T07:24:26;-0.90;1.00
6178;DHT22;3122;48.208;11.174;2023-03-01T07:29:27;-0.90;1.00
6178;DHT22;3122;48.208;11.174;2023-03-01T07:34:29;-0.90;1.00
6178;DHT22;3122;48.208;11.174;2023-03-01T07:39:29;-0.80;1.00
6178;DHT22;3122;48.208;11.174;2023-03-01T07:44:30;-0.80;1.00
6178;DHT22;3122;48.208;11.174;2023-03-01T07:49:30;-0.80;1.00
6178;DHT22;3122;48.208;11.174;2023-03-01T07:54:31;-0.90;1.00
6178;DHT22;3122;48.208;11.174;2023-03-01T07:59:32;-0.80;1.00
6178;DHT22;3122;48.208;11.174;2023-03-01T08:04:33;-0.80;1.00
6178;DHT22;3122;48.208;11.174;2023-03-01T08:09:35;-0.80;1.00
6178;DHT22;3122;48.208;11.174;2023-03-01T08:14:37;-0.70;1.00
6178;DHT22;3122;48.208;11.174;2023-03-01T08:19:37;-0.50;1.00
6178;DHT22;3122;48.208;11.174;2023-03-01T08:24:38;-0.50;1.00
6178;DHT22;3122;48.208;11.174;2023-03-01T08:29:39;-0.40;1.00
6178;DHT22;3122;48.208;11.174;2023-03-01T08:34:39;-0.30;1.00
6178;DHT22;3122;48.208;11.174;2023-03-01T08:39:40;-0.30;1.00
6178;DHT22;3122;48.208;11.174;2023-03-01T08:44:40;-0.20;1.00
6178;DHT22;3122;48.208;11.174;2023-03-01T08:49:41;-0.30;1.00
6178;DHT22;3122;48.208;11.174;2023-03-01T08:54:41;-0.10;1.00
6178;DHT22;3122;48.208;11.174;2023-03-01T08:59:42;-0.10;1.00
6178;DHT22;3122;48.208;11.174;2023-03-01T09:04:43;0.00;1.00
6178;DHT22;3122;48.208;11.174;2023-03-01T09:09:44;0.00;1.00
6178;DHT22;3122;48.208;11.174;2023-03-01T09:14:45;0.10;1.00
6178;DHT22;3122;48.208;11.174;2023-03-01T09:19:45;0.10;1.00
6178;DHT22;3122;48.208;11.174;2023-03-01T09:24:46;0.30;1.00
6178;DHT22;3122;48.208;11.174;2023-03-01T09:29:47;0.30;1.00
6178;DHT22;3122;48.208;11.174;2023-03-01T09:34:47;0.30;1.00
6178;DHT22;3122;48.208;11.174;2023-03-01T09:40:09;0.40;1.00
6178;DHT22;3122;48.208;11.174;2023-03-01T09:45:38;0.40;1.00
6178;DHT22;3122;48.208;11.174;2023-03-01T09:50:41;0.50;1.00
6178;DHT22;3122;48.208;11.174;2023-03-01T09:55:55;0.60;1.00
6178;DHT22;3122;48.208;11.174;2023-03-01T10:06:41;0.50;1.00
6178;DHT22;3122;48.208;11.174;2023-03-01T10:11:50;0.60;1.00
6178;DHT22;3122;48.208;11.174;2023-03-01T10:16:55;0.70;1.00
6178;DHT22;3122;48.208;11.174;2023-03-01T10:22:26;0.70;1.00
6178;DHT22;3122;48.208;11.174;2023-03-01T10:32:44;0.80;1.00
6178;DHT22;3122;48.208;11.174;2023-03-01T10:38:08;1.00;1.00
6178;DHT22;3122;48.208;11.174;2023-03-01T10:43:11;1.10;1.00
6178;DHT22;3122;48.208;11.174;2023-03-01T10:48:18;1.10;1.00
6178;DHT22;3122;48.208;11.174;2023-03-01T10:53:24;1.10;1.00
6178;DHT22;3122;48.208;11.174;2023-03-01T10:58:30;1.10;1.00
6178;DHT22;3122;48.208;11.174;2023-03-01T11:03:36;0.90;1.00
6178;DHT22;3122;48.208;11.174;2023-03-01T11:08:45;1.00;1.00
6178;DHT22;3122;48.208;11.174;2023-03-01T11:13:55;1.30;1.00
6178;DHT22;3122;48.208;11.174;2023-03-01T11:18:59;1.40;1.00
6178;DHT22;3122;48.208;11.174;2023-03-01T11:24:01;1.70;1.00
6178;DHT22;3122;48.208;11.174;2023-03-01T11:29:06;1.80;1.00
6178;DHT22;3122;48.208;11.174;2023-03-01T11:34:15;1.80;1.00
6178;DHT22;3122;48.208;11.174;2023-03-01T11:44:28;2.30;1.00
6178;DHT22;3122;48.208;11.174;2023-03-01T11:49:35;2.20;1.00
6178;DHT22;3122;48.208;11.174;2023-03-01T12:16:45;2.90;1.00
6178;DHT22;3122;48.208;11.174;2023-03-01T12:37:46;3.20;1.00
6178;DHT22;3122;48.208;11.174;2023-03-01T12:43:02;3.20;1.00
6178;DHT22;3122;48.208;11.174;2023-03-01T12:53:27;3.40;1.00
6178;DHT22;3122;48.208;11.174;2023-03-01T12:58:35;3.60;1.00
6178;DHT22;3122;48.208;11.174;2023-03-01T13:03:56;3.60;1.00
6178;DHT22;3122;48.208;11.174;2023-03-01T13:09:30;3.60;1.00
6178;DHT22;3122;48.208;11.174;2023-03-01T13:19:33;4.00;1.00
6178;DHT22;3122;48.208;11.174;2023-03-01T13:24:39;4.00;1.00
6178;DHT22;3122;48.208;11.174;2023-03-01T13:34:58;4.10;1.00
6178;DHT22;3122;48.208;11.174;2023-03-01T13:40:02;4.00;1.00
6178;DHT22;3122;48.208;11.174;2023-03-01T13:50:30;4.00;1.00
6178;DHT22;3122;48.208;11.174;2023-03-01T13:55:45;4.00;1.00
6178;DHT22;3122;48.208;11.174;2023-03-01T14:00:46;4.10;1.00
6178;DHT22;3122;48.208;11.174;2023-03-01T14:06:14;4.20;1.00
6178;DHT22;3122;48.208;11.174;2023-03-01T14:17:32;4.40;1.00
6178;DHT22;3122;48.208;11.174;2023-03-01T14:22:35;4.40;1.00
6178;DHT22;3122;48.208;11.174;2023-03-01T14:27:39;4.40;1.00
6178;DHT22;3122;48.208;11.174;2023-03-01T14:32:42;4.50;1.00
6178;DHT22;3122;48.208;11.174;2023-03-01T14:37:43;4.50;1.00
6178;DHT22;3122;48.208;11.174;2023-03-01T14:42:43;4.60;1.00
6178;DHT22;3122;48.208;11.174;2023-03-01T14:47:44;4.60;1.00
6178;DHT22;3122;48.208;11.174;2023-03-01T14:52:48;4.40;1.00
6178;DHT22;3122;48.208;11.174;2023-03-01T14:57:50;4.40;1.00
6178;DHT22;3122;48.208;11.174;2023-03-01T15:02:53;4.50;1.00
6178;DHT22;3122;48.208;11.174;2023-03-01T15:07:54;4.40;1.00
6178;DHT22;3122;48.208;11.174;2023-03-01T15:12:56;4.40;1.00
6178;DHT22;3122;48.208;11.174;2023-03-01T15:18:02;4.30;1.00
6178;DHT22;3122;48.208;11.174;2023-03-01T15:23:04;4.20;1.00
6178;DHT22;3122;48.208;11.174;2023-03-01T15:28:04;4.20;1.00
6178;DHT22;3122;48.208;11.174;2023-03-01T15:43:41;4.30;1.00
6178;DHT22;3122;48.208;11.174;2023-03-01T15:48:47;4.30;1.00
6178;DHT22;3122;48.208;11.174;2023-03-01T15:53:53;4.30;1.00
6178;DHT22;3122;48.208;11.174;2023-03-01T15:58:57;4.30;1.00
6178;DHT22;3122;48.208;11.174;2023-03-01T16:03:58;4.30;1.00
6178;DHT22;3122;48.208;11.174;2023-03-01T16:08:59;4.20;1.00
6178;DHT22;3122;48.208;11.174;2023-03-01T16:13:59;4.20;1.00
6178;DHT22;3122;48.208;11.174;2023-03-01T16:19:00;4.20;1.00
6178;DHT22;3122;48.208;11.174;2023-03-01T16:24:00;4.10;1.00
6178;DHT22;3122;48.208;11.174;2023-03-01T16:29:01;4.10;1.00
6178;DHT22;3122;48.208;11.174;2023-03-01T16:34:02;4.10;1.00
6178;DHT22;3122;48.208;11.174;2023-03-01T16:39:03;3.90;1.00
6178;DHT22;3122;48.208;11.174;2023-03-01T16:44:04;3.70;1.00
6178;DHT22;3122;48.208;11.174;2023-03-01T16:49:04;3.60;1.00
6178;DHT22;3122;48.208;11.174;2023-03-01T16:54:05;3.50;1.00
6178;DHT22;3122;48.208;11.174;2023-03-01T16:59:06;3.30;1.00
6178;DHT22;3122;48.208;11.174;2023-03-01T17:04:11;3.20;1.00
6178;DHT22;3122;48.208;11.174;2023-03-01T17:09:12;3.10;1.00
6178;DHT22;3122;48.208;11.174;2023-03-01T17:14:12;3.00;1.00
6178;DHT22;3122;48.208;11.174;2023-03-01T17:19:13;2.90;1.00
6178;DHT22;3122;48.208;11.174;2023-03-01T17:24:17;2.80;1.00
6178;DHT22;3122;48.208;11.174;2023-03-01T17:29:18;2.70;1.00
6178;DHT22;3122;48.208;11.174;2023-03-01T17:34:19;2.60;1.00
6178;DHT22;3122;48.208;11.174;2023-03-01T17:39:19;2.60;1.00
6178;DHT22;3122;48.208;11.174;2023-03-01T17:44:25;2.60;1.00
6178;DHT22;3122;48.208;11.174;2023-03-01T17:49:25;2.60;1.00
6178;DHT22;3122;48.208;11.174;2023-03-01T17:54:26;2.70;1.00
6178;DHT22;3122;48.208;11.174;2023-03-01T17:59:27;2.70;1.00
6178;DHT22;3122;48.208;11.174;2023-03-01T18:04:32;2.80;1.00
6178;DHT22;3122;48.208;11.174;2023-03-01T18:09:33;2.80;1.00
6178;DHT22;3122;48.208;11.174;2023-03-01T18:14:33;2.60;1.00
6178;DHT22;3122;48.208;11.174;2023-03-01T18:19:34;2.40;1.00
6178;DHT22;3122;48.208;11.174;2023-03-01T18:24:35;2.40;1.00
6178;DHT22;3122;48.208;11.174;2023-03-01T18:29:36;2.20;1.00
6178;DHT22;3122;48.208;11.174;2023-03-01T18:34:37;2.20;1.00
6178;DHT22;3122;48.208;11.174;2023-03-01T18:39:38;2.10;1.00
6178;DHT22;3122;48.208;11.174;2023-03-01T18:44:40;2.10;1.00
6178;DHT22;3122;48.208;11.174;2023-03-01T18:49:41;2.00;1.00
6178;DHT22;3122;48.208;11.174;2023-03-01T18:54:42;1.90;1.00
6178;DHT22;3122;48.208;11.174;2023-03-01T18:59:42;1.80;1.00
6178;DHT22;3122;48.208;11.174;2023-03-01T19:04:43;1.60;1.00
6178;DHT22;3122;48.208;11.174;2023-03-01T19:09:43;1.50;1.00
6178;DHT22;3122;48.208;11.174;2023-03-01T19:14:44;1.60;1.00
6178;DHT22;3122;48.208;11.174;2023-03-01T19:19:44;1.40;1.00
6178;DHT22;3122;48.208;11.174;2023-03-01T19:24:45;1.20;1.00
6178;DHT22;3122;48.208;11.174;2023-03-01T19:29:46;1.10;1.00
6178;DHT22;3122;48.208;11.174;2023-03-01T19:34:46;0.90;1.00
6178;DHT22;3122;48.208;11.174;2023-03-01T19:39:47;0.90;1.00
6178;DHT22;3122;48.208;11.174;2023-03-01T19:44:47;0.90;1.00
6178;DHT22;3122;48.208;11.174;2023-03-01T19:49:48;0.70;1.00
6178;DHT22;3122;48.208;11.174;2023-03-01T19:54:48;0.60;1.00
6178;DHT22;3122;48.208;11.174;2023-03-01T19:59:49;0.60;1.00
6178;DHT22;3122;48.208;11.174;2023-03-01T20:04:49;0.60;1.00
6178;DHT22;3122;48.208;11.174;2023-03-01T20:09:50;0.60;1.00
6178;DHT22;3122;48.208;11.174;2023-03-01T20:14:51;0.50;1.00
6178;DHT22;3122;48.208;11.174;2023-03-01T20:19:54;0.50;1.00
6178;DHT22;3122;48.208;11.174;2023-03-01T20:24:55;0.60;1.00
6178;DHT22;3122;48.208;11.174;2023-03-01T20:29:55;0.70;1.00
6178;DHT22;3122;48.208;11.174;2023-03-01T20:34:56;0.80;1.00
6178;DHT22;3122;48.208;11.174;2023-03-01T20:39:56;0.90;1.00
6178;DHT22;3122;48.208;11.174;2023-03-01T20:44:57;0.90;1.00
6178;DHT22;3122;48.208;11.174;2023-03-01T20:49:58;0.90;1.00
6178;DHT22;3122;48.208;11.174;2023-03-01T20:55:00;1.00;1.00
6178;DHT22;3122;48.208;11.174;2023-03-01T21:00:03;1.00;1.00
6178;DHT22;3122;48.208;11.174;2023-03-01T21:05:05;1.00;1.00
6178;DHT22;3122;48.208;11.174;2023-03-01T21:10:05;1.10;1.00
6178;DHT22;3122;48.208;11.174;2023-03-01T21:15:06;1.00;1.00
6178;DHT22;3122;48.208;11.174;2023-03-01T21:20:08;1.00;1.00
6178;DHT22;3122;48.208;11.174;2023-03-01T21:25:08;1.10;1.00
6178;DHT22;3122;48.208;11.174;2023-03-01T21:30:10;1.10;1.00
6178;DHT22;3122;48.208;11.174;2023-03-01T21:35:11;1.10;1.00
6178;DHT22;3122;48.208;11.174;2023-03-01T21:40:12;1.10;1.00
6178;DHT22;3122;48.208;11.174;2023-03-01T21:45:12;1.10;1.00
6178;DHT22;3122;48.208;11.174;2023-03-01T21:50:13;0.90;1.00
6178;DHT22;3122;48.208;11.174;2023-03-01T21:55:13;1.00;1.00
6178;DHT22;3122;48.208;11.174;2023-03-01T22:00:15;1.00;1.00
6178;DHT22;3122;48.208;11.174;2023-03-01T22:05:17;0.90;1.00
6178;DHT22;3122;48.208;11.174;2023-03-01T22:10:17;0.80;1.00
6178;DHT22;3122;48.208;11.174;2023-03-01T22:15:26;0.80;1.00
6178;DHT22;3122;48.208;11.174;2023-03-01T22:20:27;0.80;1.00
6178;DHT22;3122;48.208;11.174;2023-03-01T22:25:28;0.80;1.00
6178;DHT22;3122;48.208;11.174;2023-03-01T22:30:28;0.80;1.00
6178;DHT22;3122;48.208;11.174;2023-03-01T22:35:30;0.80;1.00
6178;DHT22;3122;48.208;11.174;2023-03-01T22:40:39;0.70;1.00
6178;DHT22;3122;48.208;11.174;2023-03-01T22:45:40;0.70;1.00
6178;DHT22;3122;48.208;11.174;2023-03-01T22:50:43;0.70;1.00
6178;DHT22;3122;48.208;11.174;2023-03-01T22:55:43;0.60;1.00
6178;DHT22;3122;48.208;11.174;2023-03-01T23:00:44;0.60;1.00
6178;DHT22;3122;48.208;11.174;2023-03-01T23:05:44;0.60;1.00
6178;DHT22;3122;48.208;11.174;2023-03-01T23:10:45;0.60;1.00
6178;DHT22;3122;48.208;11.174;2023-03-01T23:15:55;0.60;1.00
6178;DHT22;3122;48.208;11.174;2023-03-01T23:20:55;0.50;1.00
6178;DHT22;3122;48.208;11.174;2023-03-01T23:25:57;0.50;1.00
6178;DHT22;3122;48.208;11.174;2023-03-01T23:31:00;0.50;1.00
6178;DHT22;3122;48.208;11.174;2023-03-01T23:36:01;0.40;1.00
6178;DHT22;3122;48.208;11.174;2023-03-01T23:41:02;0.40;1.00
6178;DHT22;3122;48.208;11.174;2023-03-01T23:46:02;0.50;1.00
6178;DHT22;3122;48.208;11.174;2023-03-01T23:51:04;0.40;1.00
6178;DHT22;3122;48.208;11.174;2023-03-01T23:56:05;0.40;1.00
